sensor_id;sensor_type;location;lat;lon;timestamp;temperature;humidity
5697;DHT22;2873;50.966;7.210;2023-02-21T00:01:55;9.70;99.90
5697;DHT22;2873;50.966;7.210;2023-02-21T00:04:40;9.70;99.90
5697;DHT22;2873;50.966;7.210;2023-02-21T00:07:24;9.70;99.90
5697;DHT22;2873;50.966;7.210;2023-02-21T00:10:11;9.80;99.90
5697;DHT22;2873;50.966;7.210;2023-02-21T00:12:56;9.80;99.90
5697;DHT22;2873;50.966;7.210;2023-02-21T00:15:40;9.90;99.90
5697;DHT22;2873;50.966;7.210;2023-02-21T00:18:25;9.80;99.90
5697;DHT22;2873;50.966;7.210;2023-02-21T00:21:09;9.80;99.90
5697;DHT22;2873;50.966;7.210;2023-02-21T00:23:53;9.80;99.90
5697;DHT22;2873;50.966;7.210;2023-02-21T00:26:37;9.90;99.90
5697;DHT22;2873;50.966;7.210;2023-02-21T00:29:21;10.00;99.90
5697;DHT22;2873;50.966;7.210;2023-02-21T00:32:05;10.00;99.90
5697;DHT22;2873;50.966;7.210;2023-02-21T00:34:49;10.00;99.90
5697;DHT22;2873;50.966;7.210;2023-02-21T00:37:33;10.00;99.90
5697;DHT22;2873;50.966;7.210;2023-02-21T00:40:17;10.00;99.90
5697;DHT22;2873;50.966;7.210;2023-02-21T00:43:01;10.00;99.90
5697;DHT22;2873;50.966;7.210;2023-02-21T00:45:45;10.00;99.90
5697;DHT22;2873;50.966;7.210;2023-02-21T00:48:29;10.00;99.90
5697;DHT22;2873;50.966;7.210;2023-02-21T00:51:14;10.00;99.90
5697;DHT22;2873;50.966;7.210;2023-02-21T00:53:58;10.00;99.90
5697;DHT22;2873;50.966;7.210;2023-02-21T00:56:42;10.00;99.90
5697;DHT22;2873;50.966;7.210;2023-02-21T00:59:26;10.10;99.90
5697;DHT22;2873;50.966;7.210;2023-02-21T01:02:11;10.10;99.90
5697;DHT22;2873;50.966;7.210;2023-02-21T01:04:55;10.00;99.90
5697;DHT22;2873;50.966;7.210;2023-02-21T01:07:39;9.90;99.90
5697;DHT22;2873;50.966;7.210;2023-02-21T01:10:24;9.90;99.90
5697;DHT22;2873;50.966;7.210;2023-02-21T01:13:08;9.90;99.90
5697;DHT22;2873;50.966;7.210;2023-02-21T01:15:52;9.90;99.90
5697;DHT22;2873;50.966;7.210;2023-02-21T01:18:36;9.90;99.90
5697;DHT22;2873;50.966;7.210;2023-02-21T01:21:20;9.90;99.90
5697;DHT22;2873;50.966;7.210;2023-02-21T01:24:05;9.90;99.90
5697;DHT22;2873;50.966;7.210;2023-02-21T01:26:50;9.90;99.90
5697;DHT22;2873;50.966;7.210;2023-02-21T01:29:34;10.00;99.90
5697;DHT22;2873;50.966;7.210;2023-02-21T01:32:19;10.00;99.90
5697;DHT22;2873;50.966;7.210;2023-02-21T01:35:05;10.00;99.90
5697;DHT22;2873;50.966;7.210;2023-02-21T01:37:49;10.00;99.90
5697;DHT22;2873;50.966;7.210;2023-02-21T01:40:34;10.00;99.90
5697;DHT22;2873;50.966;7.210;2023-02-21T01:43:23;10.00;99.90
5697;DHT22;2873;50.966;7.210;2023-02-21T01:46:13;10.00;99.90
5697;DHT22;2873;50.966;7.210;2023-02-21T01:49:01;10.00;99.90
5697;DHT22;2873;50.966;7.210;2023-02-21T01:51:46;10.00;99.90
5697;DHT22;2873;50.966;7.210;2023-02-21T01:54:38;10.00;99.90
5697;DHT22;2873;50.966;7.210;2023-02-21T01:57:23;10.00;99.90
5697;DHT22;2873;50.966;7.210;2023-02-21T02:00:09;10.00;99.90
5697;DHT22;2873;50.966;7.210;2023-02-21T02:03:00;10.00;99.90
5697;DHT22;2873;50.966;7.210;2023-02-21T02:05:48;10.10;99.90
5697;DHT22;2873;50.966;7.210;2023-02-21T02:08:34;10.10;99.90
5697;DHT22;2873;50.966;7.210;2023-02-21T02:32:20;9.80;99.90
5697;DHT22;2873;50.966;7.210;2023-02-21T02:35:12;9.80;99.90
5697;DHT22;2873;50.966;7.210;2023-02-21T02:40:29;9.70;99.90
5697;DHT22;2873;50.966;7.210;2023-02-21T02:43:09;9.80;99.90
5697;DHT22;2873;50.966;7.210;2023-02-21T02:45:50;9.80;99.90
5697;DHT22;2873;50.966;7.210;2023-02-21T02:48:41;9.90;99.90
5697;DHT22;2873;50.966;7.210;2023-02-21T02:51:13;9.80;99.90
5697;DHT22;2873;50.966;7.210;2023-02-21T02:53:39;9.90;99.90
5697;DHT22;2873;50.966;7.210;2023-02-21T02:56:10;9.90;99.90
5697;DHT22;2873;50.966;7.210;2023-02-21T02:58:59;9.90;99.90
5697;DHT22;2873;50.966;7.210;2023-02-21T03:12:50;9.90;99.90
5697;DHT22;2873;50.966;7.210;2023-02-21T03:15:26;9.90;99.90
5697;DHT22;2873;50.966;7.210;2023-02-21T03:17:58;9.90;99.90
5697;DHT22;2873;50.966;7.210;2023-02-21T03:20:26;9.90;99.90
5697;DHT22;2873;50.966;7.210;2023-02-21T03:22:54;9.80;99.90
5697;DHT22;2873;50.966;7.210;2023-02-21T03:25:21;9.70;99.90
5697;DHT22;2873;50.966;7.210;2023-02-21T03:27:48;9.70;99.90
5697;DHT22;2873;50.966;7.210;2023-02-21T03:30:15;9.70;99.90
5697;DHT22;2873;50.966;7.210;2023-02-21T03:32:46;9.60;99.90
5697;DHT22;2873;50.966;7.210;2023-02-21T03:35:13;9.60;99.90
5697;DHT22;2873;50.966;7.210;2023-02-21T03:37:42;9.60;99.90
5697;DHT22;2873;50.966;7.210;2023-02-21T03:40:12;9.50;99.90
5697;DHT22;2873;50.966;7.210;2023-02-21T03:42:38;9.50;99.90
5697;DHT22;2873;50.966;7.210;2023-02-21T03:45:04;9.50;99.90
5697;DHT22;2873;50.966;7.210;2023-02-21T03:47:29;9.30;99.90
5697;DHT22;2873;50.966;7.210;2023-02-21T03:49:55;9.30;99.90
5697;DHT22;2873;50.966;7.210;2023-02-21T03:52:20;9.30;99.90
5697;DHT22;2873;50.966;7.210;2023-02-21T03:54:46;9.30;99.90
5697;DHT22;2873;50.966;7.210;2023-02-21T03:57:12;9.40;99.90
5697;DHT22;2873;50.966;7.210;2023-02-21T03:59:37;9.30;99.90
5697;DHT22;2873;50.966;7.210;2023-02-21T04:02:03;9.40;99.90
5697;DHT22;2873;50.966;7.210;2023-02-21T04:04:29;9.30;99.90
5697;DHT22;2873;50.966;7.210;2023-02-21T04:06:54;9.30;99.90
5697;DHT22;2873;50.966;7.210;2023-02-21T04:09:20;9.40;99.90
5697;DHT22;2873;50.966;7.210;2023-02-21T04:11:45;9.40;99.90
5697;DHT22;2873;50.966;7.210;2023-02-21T04:14:11;9.50;99.90
5697;DHT22;2873;50.966;7.210;2023-02-21T04:16:37;9.50;99.90
5697;DHT22;2873;50.966;7.210;2023-02-21T04:19:02;9.60;99.90
5697;DHT22;2873;50.966;7.210;2023-02-21T04:21:28;9.60;99.90
5697;DHT22;2873;50.966;7.210;2023-02-21T04:23:54;9.60;99.90
5697;DHT22;2873;50.966;7.210;2023-02-21T04:26:20;9.60;99.90
5697;DHT22;2873;50.966;7.210;2023-02-21T04:28:46;9.50;99.90
5697;DHT22;2873;50.966;7.210;2023-02-21T04:31:14;9.50;99.90
5697;DHT22;2873;50.966;7.210;2023-02-21T04:33:39;9.50;99.90
5697;DHT22;2873;50.966;7.210;2023-02-21T04:36:05;9.50;99.90
5697;DHT22;2873;50.966;7.210;2023-02-21T04:38:31;9.50;99.90
5697;DHT22;2873;50.966;7.210;2023-02-21T04:40:56;9.50;99.90
5697;DHT22;2873;50.966;7.210;2023-02-21T04:43:22;9.50;99.90
5697;DHT22;2873;50.966;7.210;2023-02-21T04:45:48;9.50;99.90
5697;DHT22;2873;50.966;7.210;2023-02-21T04:48:13;9.60;99.90
5697;DHT22;2873;50.966;7.210;2023-02-21T04:50:39;9.50;99.90
5697;DHT22;2873;50.966;7.210;2023-02-21T04:53:06;9.60;99.90
5697;DHT22;2873;50.966;7.210;2023-02-21T04:55:31;9.50;99.90
5697;DHT22;2873;50.966;7.210;2023-02-21T04:57:57;9.50;99.90
5697;DHT22;2873;50.966;7.210;2023-02-21T05:00:22;9.50;99.90
5697;DHT22;2873;50.966;7.210;2023-02-21T05:02:48;9.50;99.90
5697;DHT22;2873;50.966;7.210;2023-02-21T05:05:14;9.50;99.90
5697;DHT22;2873;50.966;7.210;2023-02-21T05:07:42;9.50;99.90
5697;DHT22;2873;50.966;7.210;2023-02-21T05:10:09;9.50;99.90
5697;DHT22;2873;50.966;7.210;2023-02-21T05:12:36;9.50;99.90
5697;DHT22;2873;50.966;7.210;2023-02-21T05:15:04;9.60;99.90
5697;DHT22;2873;50.966;7.210;2023-02-21T05:17:30;9.50;99.90
5697;DHT22;2873;50.966;7.210;2023-02-21T05:19:56;9.40;99.90
5697;DHT22;2873;50.966;7.210;2023-02-21T05:22:22;9.50;99.90
5697;DHT22;2873;50.966;7.210;2023-02-21T05:24:48;9.40;99.90
5697;DHT22;2873;50.966;7.210;2023-02-21T05:27:15;9.30;99.90
5697;DHT22;2873;50.966;7.210;2023-02-21T05:29:45;9.30;99.90
5697;DHT22;2873;50.966;7.210;2023-02-21T05:32:10;9.30;99.90
5697;DHT22;2873;50.966;7.210;2023-02-21T05:34:36;9.40;99.90
5697;DHT22;2873;50.966;7.210;2023-02-21T05:37:01;9.40;99.90
5697;DHT22;2873;50.966;7.210;2023-02-21T05:39:27;9.40;99.90
5697;DHT22;2873;50.966;7.210;2023-02-21T05:41:52;9.40;99.90
5697;DHT22;2873;50.966;7.210;2023-02-21T05:44:18;9.50;99.90
5697;DHT22;2873;50.966;7.210;2023-02-21T05:46:44;9.50;99.90
5697;DHT22;2873;50.966;7.210;2023-02-21T05:49:11;9.40;99.90
5697;DHT22;2873;50.966;7.210;2023-02-21T05:51:38;9.50;99.90
5697;DHT22;2873;50.966;7.210;2023-02-21T05:54:06;9.50;99.90
5697;DHT22;2873;50.966;7.210;2023-02-21T05:56:39;9.50;99.90
5697;DHT22;2873;50.966;7.210;2023-02-21T05:59:05;9.50;99.90
5697;DHT22;2873;50.966;7.210;2023-02-21T06:01:31;9.40;99.90
5697;DHT22;2873;50.966;7.210;2023-02-21T06:03:56;9.40;99.90
5697;DHT22;2873;50.966;7.210;2023-02-21T06:06:22;9.40;99.90
5697;DHT22;2873;50.966;7.210;2023-02-21T06:08:48;9.40;99.90
5697;DHT22;2873;50.966;7.210;2023-02-21T06:11:15;9.40;99.90
5697;DHT22;2873;50.966;7.210;2023-02-21T06:13:45;9.40;99.90
5697;DHT22;2873;50.966;7.210;2023-02-21T06:16:11;9.40;99.90
5697;DHT22;2873;50.966;7.210;2023-02-21T06:18:36;9.50;99.90
5697;DHT22;2873;50.966;7.210;2023-02-21T06:21:02;9.40;99.90
5697;DHT22;2873;50.966;7.210;2023-02-21T06:23:28;9.40;99.90
5697;DHT22;2873;50.966;7.210;2023-02-21T06:25:53;9.30;99.90
5697;DHT22;2873;50.966;7.210;2023-02-21T06:28:19;9.40;99.90
5697;DHT22;2873;50.966;7.210;2023-02-21T06:30:44;9.30;99.90
5697;DHT22;2873;50.966;7.210;2023-02-21T06:33:10;9.30;99.90
5697;DHT22;2873;50.966;7.210;2023-02-21T06:35:35;9.30;99.90
5697;DHT22;2873;50.966;7.210;2023-02-21T06:38:01;9.30;99.90
5697;DHT22;2873;50.966;7.210;2023-02-21T06:40:26;9.30;99.90
5697;DHT22;2873;50.966;7.210;2023-02-21T06:42:52;9.30;99.90
5697;DHT22;2873;50.966;7.210;2023-02-21T06:45:17;9.10;99.90
5697;DHT22;2873;50.966;7.210;2023-02-21T06:47:43;9.10;99.90
5697;DHT22;2873;50.966;7.210;2023-02-21T06:50:08;9.00;99.90
5697;DHT22;2873;50.966;7.210;2023-02-21T06:52:34;9.10;99.90
5697;DHT22;2873;50.966;7.210;2023-02-21T06:54:59;9.20;99.90
5697;DHT22;2873;50.966;7.210;2023-02-21T06:57:25;9.20;99.90
5697;DHT22;2873;50.966;7.210;2023-02-21T06:59:50;9.20;99.90
5697;DHT22;2873;50.966;7.210;2023-02-21T07:02:18;9.20;99.90
5697;DHT22;2873;50.966;7.210;2023-02-21T07:04:47;9.30;99.90
5697;DHT22;2873;50.966;7.210;2023-02-21T07:07:13;9.30;99.90
5697;DHT22;2873;50.966;7.210;2023-02-21T07:09:39;9.30;99.90
5697;DHT22;2873;50.966;7.210;2023-02-21T07:12:05;9.30;99.90
5697;DHT22;2873;50.966;7.210;2023-02-21T07:14:30;9.30;99.90
5697;DHT22;2873;50.966;7.210;2023-02-21T07:16:56;9.40;99.90
5697;DHT22;2873;50.966;7.210;2023-02-21T07:19:21;9.30;99.90
5697;DHT22;2873;50.966;7.210;2023-02-21T07:21:47;9.30;99.90
5697;DHT22;2873;50.966;7.210;2023-02-21T07:24:13;9.30;99.90
5697;DHT22;2873;50.966;7.210;2023-02-21T07:26:39;9.30;99.90
5697;DHT22;2873;50.966;7.210;2023-02-21T07:29:05;9.30;99.90
5697;DHT22;2873;50.966;7.210;2023-02-21T07:31:30;9.30;99.90
5697;DHT22;2873;50.966;7.210;2023-02-21T07:33:56;9.40;99.90
5697;DHT22;2873;50.966;7.210;2023-02-21T07:36:22;9.30;99.90
5697;DHT22;2873;50.966;7.210;2023-02-21T07:38:48;9.30;99.90
5697;DHT22;2873;50.966;7.210;2023-02-21T07:41:14;9.20;99.90
5697;DHT22;2873;50.966;7.210;2023-02-21T07:43:40;9.20;99.90
5697;DHT22;2873;50.966;7.210;2023-02-21T07:46:14;9.10;99.90
5697;DHT22;2873;50.966;7.210;2023-02-21T07:48:40;9.10;99.90
5697;DHT22;2873;50.966;7.210;2023-02-21T07:51:07;9.20;99.90
5697;DHT22;2873;50.966;7.210;2023-02-21T07:53:32;9.10;99.90
5697;DHT22;2873;50.966;7.210;2023-02-21T07:55:58;9.00;99.90
5697;DHT22;2873;50.966;7.210;2023-02-21T07:58:23;8.90;99.90
5697;DHT22;2873;50.966;7.210;2023-02-21T08:00:50;9.00;99.90
5697;DHT22;2873;50.966;7.210;2023-02-21T08:03:17;9.20;99.90
5697;DHT22;2873;50.966;7.210;2023-02-21T08:05:43;9.30;99.90
5697;DHT22;2873;50.966;7.210;2023-02-21T08:08:10;9.40;99.90
5697;DHT22;2873;50.966;7.210;2023-02-21T08:10:36;9.60;99.90
5697;DHT22;2873;50.966;7.210;2023-02-21T08:13:03;9.60;99.90
5697;DHT22;2873;50.966;7.210;2023-02-21T08:15:28;9.60;99.90
5697;DHT22;2873;50.966;7.210;2023-02-21T08:17:54;9.60;99.90
5697;DHT22;2873;50.966;7.210;2023-02-21T08:20:19;9.60;99.90
5697;DHT22;2873;50.966;7.210;2023-02-21T08:22:45;9.60;99.90
5697;DHT22;2873;50.966;7.210;2023-02-21T08:25:12;9.70;99.90
5697;DHT22;2873;50.966;7.210;2023-02-21T08:27:39;9.70;99.90
5697;DHT22;2873;50.966;7.210;2023-02-21T08:30:06;9.70;99.90
5697;DHT22;2873;50.966;7.210;2023-02-21T08:32:33;9.60;99.90
5697;DHT22;2873;50.966;7.210;2023-02-21T08:35:00;9.70;99.90
5697;DHT22;2873;50.966;7.210;2023-02-21T08:37:25;9.80;99.90
5697;DHT22;2873;50.966;7.210;2023-02-21T08:39:57;10.00;99.90
5697;DHT22;2873;50.966;7.210;2023-02-21T08:42:23;10.10;99.90
5697;DHT22;2873;50.966;7.210;2023-02-21T08:44:49;9.90;99.90
5697;DHT22;2873;50.966;7.210;2023-02-21T08:47:16;9.90;99.90
5697;DHT22;2873;50.966;7.210;2023-02-21T08:49:46;9.90;99.90
5697;DHT22;2873;50.966;7.210;2023-02-21T08:52:13;10.00;99.90
5697;DHT22;2873;50.966;7.210;2023-02-21T08:54:39;10.10;99.90
5697;DHT22;2873;50.966;7.210;2023-02-21T08:57:04;10.00;99.90
5697;DHT22;2873;50.966;7.210;2023-02-21T08:59:30;10.10;99.90
5697;DHT22;2873;50.966;7.210;2023-02-21T09:01:58;10.20;99.90
5697;DHT22;2873;50.966;7.210;2023-02-21T09:04:24;10.30;99.90
5697;DHT22;2873;50.966;7.210;2023-02-21T09:06:52;10.30;99.90
5697;DHT22;2873;50.966;7.210;2023-02-21T09:09:17;10.30;99.90
5697;DHT22;2873;50.966;7.210;2023-02-21T09:11:43;10.00;99.90
5697;DHT22;2873;50.966;7.210;2023-02-21T09:14:11;9.70;99.90
5697;DHT22;2873;50.966;7.210;2023-02-21T09:16:37;9.40;99.90
5697;DHT22;2873;50.966;7.210;2023-02-21T09:19:03;9.40;99.90
5697;DHT22;2873;50.966;7.210;2023-02-21T09:21:31;9.40;99.90
5697;DHT22;2873;50.966;7.210;2023-02-21T09:23:57;9.50;99.90
5697;DHT22;2873;50.966;7.210;2023-02-21T09:26:24;9.40;99.90
5697;DHT22;2873;50.966;7.210;2023-02-21T09:28:51;9.20;99.90
5697;DHT22;2873;50.966;7.210;2023-02-21T09:31:17;9.20;99.90
5697;DHT22;2873;50.966;7.210;2023-02-21T09:33:43;9.20;99.90
5697;DHT22;2873;50.966;7.210;2023-02-21T09:36:10;9.20;99.90
5697;DHT22;2873;50.966;7.210;2023-02-21T09:38:36;9.30;99.90
5697;DHT22;2873;50.966;7.210;2023-02-21T09:41:06;9.70;99.90
5697;DHT22;2873;50.966;7.210;2023-02-21T09:43:52;9.60;99.90
5697;DHT22;2873;50.966;7.210;2023-02-21T09:46:28;9.40;99.90
5697;DHT22;2873;50.966;7.210;2023-02-21T09:48:57;9.30;99.90
5697;DHT22;2873;50.966;7.210;2023-02-21T09:51:23;9.50;99.90
5697;DHT22;2873;50.966;7.210;2023-02-21T09:53:53;9.30;99.90
5697;DHT22;2873;50.966;7.210;2023-02-21T09:56:38;9.20;99.90
5697;DHT22;2873;50.966;7.210;2023-02-21T09:59:10;9.40;99.90
5697;DHT22;2873;50.966;7.210;2023-02-21T10:04:17;9.30;99.90
5697;DHT22;2873;50.966;7.210;2023-02-21T10:06:51;9.40;99.90
5697;DHT22;2873;50.966;7.210;2023-02-21T10:09:30;9.50;99.90
5697;DHT22;2873;50.966;7.210;2023-02-21T10:12:29;9.70;99.90
5697;DHT22;2873;50.966;7.210;2023-02-21T10:17:40;9.70;99.90
5697;DHT22;2873;50.966;7.210;2023-02-21T10:20:21;9.70;99.90
5697;DHT22;2873;50.966;7.210;2023-02-21T10:22:51;9.80;99.90
5697;DHT22;2873;50.966;7.210;2023-02-21T10:25:25;9.90;99.90
5697;DHT22;2873;50.966;7.210;2023-02-21T10:27:53;10.00;99.90
5697;DHT22;2873;50.966;7.210;2023-02-21T10:30:26;10.10;99.90
5697;DHT22;2873;50.966;7.210;2023-02-21T10:32:54;10.10;99.90
5697;DHT22;2873;50.966;7.210;2023-02-21T10:35:20;10.10;99.90
5697;DHT22;2873;50.966;7.210;2023-02-21T10:37:55;10.20;99.90
5697;DHT22;2873;50.966;7.210;2023-02-21T10:45:44;10.20;99.90
5697;DHT22;2873;50.966;7.210;2023-02-21T10:48:12;10.10;99.90
5697;DHT22;2873;50.966;7.210;2023-02-21T10:53:04;10.30;99.90
5697;DHT22;2873;50.966;7.210;2023-02-21T10:55:30;10.40;99.90
5697;DHT22;2873;50.966;7.210;2023-02-21T10:57:57;10.50;99.90
5697;DHT22;2873;50.966;7.210;2023-02-21T11:00:36;10.60;99.90
5697;DHT22;2873;50.966;7.210;2023-02-21T11:03:05;10.60;99.90
5697;DHT22;2873;50.966;7.210;2023-02-21T11:05:34;10.70;99.90
5697;DHT22;2873;50.966;7.210;2023-02-21T11:08:07;10.70;99.90
5697;DHT22;2873;50.966;7.210;2023-02-21T11:10:38;10.80;99.90
5697;DHT22;2873;50.966;7.210;2023-02-21T11:13:17;11.00;99.90
5697;DHT22;2873;50.966;7.210;2023-02-21T11:15:44;11.00;99.90
5697;DHT22;2873;50.966;7.210;2023-02-21T11:18:23;11.10;99.90
5697;DHT22;2873;50.966;7.210;2023-02-21T11:20:50;11.10;99.90
5697;DHT22;2873;50.966;7.210;2023-02-21T11:25:43;11.20;99.90
5697;DHT22;2873;50.966;7.210;2023-02-21T11:30:37;11.50;99.90
5697;DHT22;2873;50.966;7.210;2023-02-21T11:33:05;11.40;99.90
5697;DHT22;2873;50.966;7.210;2023-02-21T11:36:08;11.50;99.90
5697;DHT22;2873;50.966;7.210;2023-02-21T11:38:37;11.40;99.90
5697;DHT22;2873;50.966;7.210;2023-02-21T11:41:15;11.20;99.90
5697;DHT22;2873;50.966;7.210;2023-02-21T11:43:46;11.40;99.90
5697;DHT22;2873;50.966;7.210;2023-02-21T11:49:23;11.50;99.90
5697;DHT22;2873;50.966;7.210;2023-02-21T11:51:55;11.50;99.90
5697;DHT22;2873;50.966;7.210;2023-02-21T11:54:25;11.40;99.90
5697;DHT22;2873;50.966;7.210;2023-02-21T11:56:53;11.50;99.90
5697;DHT22;2873;50.966;7.210;2023-02-21T12:08:04;11.90;99.90
5697;DHT22;2873;50.966;7.210;2023-02-21T12:19:17;12.50;99.90
5697;DHT22;2873;50.966;7.210;2023-02-21T12:22:10;12.50;99.90
5697;DHT22;2873;50.966;7.210;2023-02-21T12:27:43;12.80;99.90
5697;DHT22;2873;50.966;7.210;2023-02-21T12:30:26;12.60;99.90
5697;DHT22;2873;50.966;7.210;2023-02-21T12:41:13;14.50;99.90
5697;DHT22;2873;50.966;7.210;2023-02-21T12:47:41;15.80;99.90
5697;DHT22;2873;50.966;7.210;2023-02-21T12:50:17;16.40;99.90
5697;DHT22;2873;50.966;7.210;2023-02-21T12:55:39;17.40;99.90
5697;DHT22;2873;50.966;7.210;2023-02-21T13:01:06;19.00;99.90
5697;DHT22;2873;50.966;7.210;2023-02-21T13:11:47;20.40;99.90
5697;DHT22;2873;50.966;7.210;2023-02-21T13:14:17;20.70;99.90
5697;DHT22;2873;50.966;7.210;2023-02-21T13:16:44;20.90;99.90
5697;DHT22;2873;50.966;7.210;2023-02-21T13:19:11;21.20;99.90
5697;DHT22;2873;50.966;7.210;2023-02-21T13:22:10;21.50;99.90
5697;DHT22;2873;50.966;7.210;2023-02-21T13:28:15;21.60;99.90
5697;DHT22;2873;50.966;7.210;2023-02-21T13:30:46;21.60;99.90
5697;DHT22;2873;50.966;7.210;2023-02-21T13:35:49;22.00;99.90
5697;DHT22;2873;50.966;7.210;2023-02-21T13:38:18;22.00;99.90
5697;DHT22;2873;50.966;7.210;2023-02-21T13:41:13;22.10;99.90
5697;DHT22;2873;50.966;7.210;2023-02-21T13:43:49;22.20;99.90
5697;DHT22;2873;50.966;7.210;2023-02-21T13:52:35;22.20;99.90
5697;DHT22;2873;50.966;7.210;2023-02-21T14:03:00;23.00;99.90
5697;DHT22;2873;50.966;7.210;2023-02-21T14:13:55;23.40;99.90
5697;DHT22;2873;50.966;7.210;2023-02-21T14:16:32;23.50;99.90
5697;DHT22;2873;50.966;7.210;2023-02-21T14:21:34;23.60;99.90
5697;DHT22;2873;50.966;7.210;2023-02-21T14:26:44;23.60;99.90
5697;DHT22;2873;50.966;7.210;2023-02-21T14:39:52;22.60;99.90
5697;DHT22;2873;50.966;7.210;2023-02-21T14:58:07;22.80;99.90
5697;DHT22;2873;50.966;7.210;2023-02-21T15:03:28;22.70;99.90
5697;DHT22;2873;50.966;7.210;2023-02-21T15:05:57;22.70;99.90
5697;DHT22;2873;50.966;7.210;2023-02-21T15:08:26;22.70;99.90
5697;DHT22;2873;50.966;7.210;2023-02-21T15:10:56;22.70;99.90
5697;DHT22;2873;50.966;7.210;2023-02-21T15:13:26;22.60;99.90
5697;DHT22;2873;50.966;7.210;2023-02-21T15:15:58;22.40;99.90
5697;DHT22;2873;50.966;7.210;2023-02-21T15:18:30;22.50;99.90
5697;DHT22;2873;50.966;7.210;2023-02-21T15:23:27;22.20;99.90
5697;DHT22;2873;50.966;7.210;2023-02-21T15:25:56;22.00;99.90
5697;DHT22;2873;50.966;7.210;2023-02-21T15:28:25;22.00;99.90
5697;DHT22;2873;50.966;7.210;2023-02-21T15:31:00;21.80;99.90
5697;DHT22;2873;50.966;7.210;2023-02-21T15:33:29;21.40;99.90
5697;DHT22;2873;50.966;7.210;2023-02-21T15:35:58;21.20;99.90
5697;DHT22;2873;50.966;7.210;2023-02-21T15:38:29;20.90;99.90
5697;DHT22;2873;50.966;7.210;2023-02-21T15:41:06;20.40;99.90
5697;DHT22;2873;50.966;7.210;2023-02-21T15:43:44;20.20;99.90
5697;DHT22;2873;50.966;7.210;2023-02-21T15:46:16;19.90;99.90
5697;DHT22;2873;50.966;7.210;2023-02-21T15:48:45;19.70;99.90
5697;DHT22;2873;50.966;7.210;2023-02-21T15:51:11;19.50;99.90
5697;DHT22;2873;50.966;7.210;2023-02-21T15:53:37;19.20;99.90
5697;DHT22;2873;50.966;7.210;2023-02-21T15:56:22;18.90;99.90
5697;DHT22;2873;50.966;7.210;2023-02-21T15:59:27;18.60;99.90
5697;DHT22;2873;50.966;7.210;2023-02-21T16:04:46;18.00;99.90
5697;DHT22;2873;50.966;7.210;2023-02-21T16:07:36;17.80;99.90
5697;DHT22;2873;50.966;7.210;2023-02-21T16:10:08;17.70;99.90
5697;DHT22;2873;50.966;7.210;2023-02-21T16:12:43;17.50;99.90
5697;DHT22;2873;50.966;7.210;2023-02-21T16:15:20;17.30;99.90
5697;DHT22;2873;50.966;7.210;2023-02-21T16:17:52;17.10;99.90
5697;DHT22;2873;50.966;7.210;2023-02-21T16:20:21;16.90;99.90
5697;DHT22;2873;50.966;7.210;2023-02-21T16:22:50;16.70;99.90
5697;DHT22;2873;50.966;7.210;2023-02-21T16:28:25;16.40;99.90
5697;DHT22;2873;50.966;7.210;2023-02-21T16:30:51;16.20;99.90
5697;DHT22;2873;50.966;7.210;2023-02-21T16:33:17;16.00;99.90
5697;DHT22;2873;50.966;7.210;2023-02-21T16:35:43;15.80;99.90
5697;DHT22;2873;50.966;7.210;2023-02-21T16:38:13;15.60;99.90
5697;DHT22;2873;50.966;7.210;2023-02-21T16:40:39;15.40;99.90
5697;DHT22;2873;50.966;7.210;2023-02-21T16:43:04;15.30;99.90
5697;DHT22;2873;50.966;7.210;2023-02-21T16:45:31;15.10;99.90
5697;DHT22;2873;50.966;7.210;2023-02-21T16:47:58;14.90;99.90
5697;DHT22;2873;50.966;7.210;2023-02-21T16:50:28;14.80;99.90
5697;DHT22;2873;50.966;7.210;2023-02-21T16:52:55;14.60;99.90
5697;DHT22;2873;50.966;7.210;2023-02-21T16:55:20;14.40;99.90
5697;DHT22;2873;50.966;7.210;2023-02-21T16:57:51;14.30;99.90
5697;DHT22;2873;50.966;7.210;2023-02-21T17:00:19;14.30;99.90
5697;DHT22;2873;50.966;7.210;2023-02-21T17:02:46;14.20;99.90
5697;DHT22;2873;50.966;7.210;2023-02-21T17:05:12;14.00;99.90
5697;DHT22;2873;50.966;7.210;2023-02-21T17:07:38;14.00;99.90
5697;DHT22;2873;50.966;7.210;2023-02-21T17:10:04;13.80;99.90
5697;DHT22;2873;50.966;7.210;2023-02-21T17:12:30;13.70;99.90
5697;DHT22;2873;50.966;7.210;2023-02-21T17:14:55;13.70;99.90
5697;DHT22;2873;50.966;7.210;2023-02-21T17:17:21;13.60;99.90
5697;DHT22;2873;50.966;7.210;2023-02-21T17:19:47;13.50;99.90
5697;DHT22;2873;50.966;7.210;2023-02-21T17:22:12;13.40;99.90
5697;DHT22;2873;50.966;7.210;2023-02-21T17:24:38;13.30;99.90
5697;DHT22;2873;50.966;7.210;2023-02-21T17:27:04;13.20;99.90
5697;DHT22;2873;50.966;7.210;2023-02-21T17:29:29;13.10;99.90
5697;DHT22;2873;50.966;7.210;2023-02-21T17:31:55;12.90;99.90
5697;DHT22;2873;50.966;7.210;2023-02-21T17:34:21;12.90;99.90
5697;DHT22;2873;50.966;7.210;2023-02-21T17:36:48;12.80;99.90
5697;DHT22;2873;50.966;7.210;2023-02-21T17:39:15;12.70;99.90
5697;DHT22;2873;50.966;7.210;2023-02-21T17:41:49;12.60;99.90
5697;DHT22;2873;50.966;7.210;2023-02-21T17:44:15;12.60;99.90
5697;DHT22;2873;50.966;7.210;2023-02-21T17:46:54;12.50;99.90
5697;DHT22;2873;50.966;7.210;2023-02-21T17:49:22;12.40;99.90
5697;DHT22;2873;50.966;7.210;2023-02-21T17:51:48;12.40;99.90
5697;DHT22;2873;50.966;7.210;2023-02-21T17:54:16;12.20;99.90
5697;DHT22;2873;50.966;7.210;2023-02-21T17:56:42;12.20;99.90
5697;DHT22;2873;50.966;7.210;2023-02-21T17:59:08;12.10;99.90
5697;DHT22;2873;50.966;7.210;2023-02-21T18:01:33;12.00;99.90
5697;DHT22;2873;50.966;7.210;2023-02-21T18:03:59;11.90;99.90
5697;DHT22;2873;50.966;7.210;2023-02-21T18:06:28;11.80;99.90
5697;DHT22;2873;50.966;7.210;2023-02-21T18:08:55;11.80;99.90
5697;DHT22;2873;50.966;7.210;2023-02-21T18:11:23;11.80;99.90
5697;DHT22;2873;50.966;7.210;2023-02-21T18:13:50;11.70;99.90
5697;DHT22;2873;50.966;7.210;2023-02-21T18:16:16;11.70;99.90
5697;DHT22;2873;50.966;7.210;2023-02-21T18:18:41;11.70;99.90
5697;DHT22;2873;50.966;7.210;2023-02-21T18:21:08;11.50;99.90
5697;DHT22;2873;50.966;7.210;2023-02-21T18:23:34;11.50;99.90
5697;DHT22;2873;50.966;7.210;2023-02-21T18:26:02;11.40;99.90
5697;DHT22;2873;50.966;7.210;2023-02-21T18:28:29;11.30;99.90
5697;DHT22;2873;50.966;7.210;2023-02-21T18:30:55;11.30;99.90
5697;DHT22;2873;50.966;7.210;2023-02-21T18:33:22;11.30;99.90
5697;DHT22;2873;50.966;7.210;2023-02-21T18:35:48;11.20;99.90
5697;DHT22;2873;50.966;7.210;2023-02-21T18:38:14;11.10;99.90
5697;DHT22;2873;50.966;7.210;2023-02-21T18:40:43;11.00;99.90
5697;DHT22;2873;50.966;7.210;2023-02-21T18:43:25;11.00;99.90
5697;DHT22;2873;50.966;7.210;2023-02-21T18:45:53;10.90;99.90
5697;DHT22;2873;50.966;7.210;2023-02-21T18:48:20;10.90;99.90
5697;DHT22;2873;50.966;7.210;2023-02-21T18:50:47;10.90;99.90
5697;DHT22;2873;50.966;7.210;2023-02-21T18:53:13;10.90;99.90
5697;DHT22;2873;50.966;7.210;2023-02-21T18:55:40;10.90;99.90
5697;DHT22;2873;50.966;7.210;2023-02-21T18:58:06;10.90;99.90
5697;DHT22;2873;50.966;7.210;2023-02-21T19:00:33;10.90;99.90
5697;DHT22;2873;50.966;7.210;2023-02-21T19:03:01;10.90;99.90
5697;DHT22;2873;50.966;7.210;2023-02-21T19:05:27;10.90;99.90
5697;DHT22;2873;50.966;7.210;2023-02-21T19:07:53;10.80;99.90
5697;DHT22;2873;50.966;7.210;2023-02-21T19:10:20;10.80;99.90
5697;DHT22;2873;50.966;7.210;2023-02-21T19:12:47;10.70;99.90
5697;DHT22;2873;50.966;7.210;2023-02-21T19:15:12;10.70;99.90
5697;DHT22;2873;50.966;7.210;2023-02-21T19:17:38;10.60;99.90
5697;DHT22;2873;50.966;7.210;2023-02-21T19:20:04;10.70;99.90
5697;DHT22;2873;50.966;7.210;2023-02-21T19:22:30;10.60;99.90
5697;DHT22;2873;50.966;7.210;2023-02-21T19:24:56;10.60;99.90
5697;DHT22;2873;50.966;7.210;2023-02-21T19:27:22;10.70;99.90